Time;durP1;ratioP1;P1;durP2;ratioP2;P2;SDS_P1;SDS_P2;PMS_P1;PMS_P2;Temp;Humidity;BMP_temperature;BMP_pressure;BME280_temperature;BME280_humidity;BME280_pressure;Samples;Min_cycle;Max_cycle;Signal;HPM_P1;HPM_P2
2022/03/31 00:00:29;;;;;;;52.17;26.77;;;7.60;99.90;;;;;;5076996;28;19904;-64
2022/03/31 00:02:58;;;;;;;53.17;26.33;;;7.50;99.90;;;;;;5076661;28;20033;-65
2022/03/31 00:05:24;;;;;;;50.22;27.02;;;7.50;99.90;;;;;;5077077;28;20020;-65
2022/03/31 00:07:52;;;;;;;57.33;27.13;;;7.50;99.90;;;;;;5076452;28;20090;-65
2022/03/31 00:10:22;;;;;;;53.75;27.02;;;7.50;99.90;;;;;;5077310;28;20371;-64
2022/03/31 00:12:48;;;;;;;56.25;27.77;;;7.50;99.90;;;;;;5076055;28;20025;-66
2022/03/31 00:15:14;;;;;;;58.83;28.10;;;7.60;99.90;;;;;;5075869;28;20029;-65
2022/03/31 00:17:39;;;;;;;56.93;28.60;;;7.50;99.90;;;;;;5076151;28;20029;-64
2022/03/31 00:20:05;;;;;;;53.50;26.60;;;7.50;99.90;;;;;;5076316;28;20425;-65
2022/03/31 00:22:31;;;;;;;52.30;26.52;;;7.50;99.90;;;;;;5075912;28;20555;-65
2022/03/31 00:24:57;;;;;;;53.03;26.07;;;7.40;99.90;;;;;;5076582;28;20104;-65
2022/03/31 00:27:22;;;;;;;53.80;28.00;;;7.40;99.90;;;;;;5075678;28;20029;-65
2022/03/31 00:29:48;;;;;;;56.07;26.90;;;7.40;99.90;;;;;;5075834;28;20024;-63
2022/03/31 00:32:13;;;;;;;55.87;27.27;;;7.40;99.90;;;;;;5075789;28;20020;-65
2022/03/31 00:34:39;;;;;;;58.37;29.00;;;7.40;99.90;;;;;;5075769;28;20263;-65
2022/03/31 00:37:05;;;;;;;53.40;28.17;;;7.40;99.90;;;;;;5075867;28;20035;-65
2022/03/31 00:39:34;;;;;;;47.63;24.75;;;7.40;99.90;;;;;;5076068;28;20429;-64
2022/03/31 00:42:02;;;;;;;55.17;27.05;;;7.40;99.90;;;;;;5075520;28;20029;-64
2022/03/31 00:44:29;;;;;;;52.08;26.48;;;7.30;99.90;;;;;;5075727;28;20100;-64
2022/03/31 00:46:55;;;;;;;;;;;7.30;99.90;;;;;;5076006;28;20035;-64
2022/03/31 00:49:21;;;;;;;46.38;24.25;;;7.30;99.90;;;;;;5057556;28;20278;-64
2022/03/31 00:51:48;;;;;;;47.88;24.27;;;7.30;99.90;;;;;;5075333;28;20035;-64
2022/03/31 00:54:14;;;;;;;;;;;7.30;99.90;;;;;;5075898;28;20432;-64
2022/03/31 00:56:41;;;;;;;46.00;22.52;;;7.40;99.90;;;;;;5075193;28;19905;-64
2022/03/31 00:59:10;;;;;;;46.75;23.75;;;7.30;99.90;;;;;;5075053;28;20025;-64
2022/03/31 01:01:38;;;;;;;46.08;22.88;;;7.40;99.90;;;;;;5056855;28;20115;-64
2022/03/31 01:04:04;;;;;;;43.55;21.98;;;7.40;99.90;;;;;;5075113;28;20024;-64
2022/03/31 01:06:30;;;;;;;;;;;7.40;99.90;;;;;;5075244;28;20055;-63
2022/03/31 01:08:56;;;;;;;40.00;21.92;;;7.40;99.90;;;;;;5074959;28;19952;-64
2022/03/31 01:11:21;;;;;;;41.45;22.85;;;7.40;99.90;;;;;;5074685;28;20017;-64
2022/03/31 01:13:48;;;;;;;38.40;20.30;;;7.40;99.90;;;;;;5056813;28;20035;-64
2022/03/31 01:16:14;;;;;;;39.25;20.55;;;7.40;99.90;;;;;;5074718;28;20038;-65
2022/03/31 01:18:40;;;;;;;37.28;20.17;;;7.40;99.90;;;;;;5075219;28;20484;-65
2022/03/31 01:21:06;;;;;;;36.38;20.17;;;7.40;99.90;;;;;;5074399;28;20035;-65
2022/03/31 01:23:31;;;;;;;37.37;19.63;;;7.40;99.90;;;;;;5074521;28;20487;-65
2022/03/31 01:25:57;;;;;;;36.17;19.77;;;7.40;99.90;;;;;;5074514;28;20025;-65
2022/03/31 01:28:22;;;;;;;37.80;19.33;;;7.40;99.90;;;;;;5074622;28;20355;-65
2022/03/31 01:30:48;;;;;;;31.70;17.07;;;7.40;99.90;;;;;;5074764;28;20025;-65
2022/03/31 01:33:14;;;;;;;33.10;17.70;;;7.40;99.90;;;;;;5075376;28;20108;-66
2022/03/31 01:35:40;;;;;;;29.98;17.73;;;7.50;99.90;;;;;;5058097;28;20090;-64
2022/03/31 01:38:06;;;;;;;31.05;18.17;;;7.40;99.90;;;;;;5075751;28;20032;-65
2022/03/31 01:40:34;;;;;;;26.00;16.17;;;7.40;99.90;;;;;;5076651;28;20074;-65
2022/03/31 01:43:00;;;;;;;28.13;16.83;;;7.30;99.90;;;;;;5076529;28;20126;-64
2022/03/31 01:45:26;;;;;;;;;;;7.30;99.90;;;;;;5058179;28;20020;-64
2022/03/31 01:47:52;;;;;;;24.85;15.00;;;7.30;99.90;;;;;;5074951;28;19915;-63
2022/03/31 01:50:17;;;;;;;25.07;14.33;;;7.20;99.90;;;;;;5075394;28;20044;-63
2022/03/31 01:52:43;;;;;;;21.67;13.33;;;7.20;99.90;;;;;;5074464;28;20255;-64
2022/03/31 01:55:10;;;;;;;22.38;13.25;;;7.20;99.90;;;;;;5074512;28;20668;-65
2022/03/31 01:57:35;;;;;;;19.25;12.60;;;7.10;99.90;;;;;;5073873;28;20356;-62
2022/03/31 02:00:03;;;;;;;21.75;13.35;;;7.10;99.90;;;;;;5074113;28;20019;-63
2022/03/31 02:02:30;;;;;;;21.15;13.32;;;7.10;99.90;;;;;;5073622;28;20483;-64
2022/03/31 02:04:56;;;;;;;20.23;12.80;;;7.00;99.90;;;;;;5074485;28;20504;-64
2022/03/31 02:07:21;;;;;;;21.63;12.90;;;7.00;99.90;;;;;;5074097;28;20324;-64
2022/03/31 02:09:47;;;;;;;17.88;12.35;;;6.90;99.90;;;;;;5074119;28;20043;-65
2022/03/31 02:12:13;;;;;;;19.88;12.48;;;6.90;99.90;;;;;;5073597;28;20025;-64
2022/03/31 02:14:40;;;;;;;19.17;13.33;;;6.90;99.90;;;;;;5055599;28;20021;-64
2022/03/31 02:17:07;;;;;;;18.73;12.32;;;6.90;99.90;;;;;;5073481;28;20143;-64
2022/03/31 02:19:33;;;;;;;;;;;6.90;99.90;;;;;;5073855;28;20044;-64
2022/03/31 02:21:59;;;;;;;22.70;13.48;;;6.80;99.90;;;;;;5073289;28;19916;-64
2022/03/31 02:24:24;;;;;;;18.58;11.82;;;6.80;99.90;;;;;;5073593;28;20021;-64
2022/03/31 02:26:51;;;;;;;18.83;12.57;;;6.80;99.90;;;;;;5073439;28;20032;-65
2022/03/31 02:29:18;;;;;;;19.92;11.77;;;6.80;99.90;;;;;;5073221;28;20030;-65
2022/03/31 02:31:46;;;;;;;21.60;14.13;;;6.80;99.90;;;;;;5073260;28;20391;-65
2022/03/31 02:34:12;;;;;;;19.65;13.23;;;6.70;99.90;;;;;;5073509;28;20466;-65
2022/03/31 02:36:40;;;;;;;21.77;13.90;;;6.70;99.90;;;;;;5073466;28;20029;-64
2022/03/31 02:39:06;;;;;;;22.17;14.07;;;6.70;99.90;;;;;;5073081;28;20482;-64
2022/03/31 02:41:32;;;;;;;22.83;14.52;;;6.70;99.90;;;;;;5073326;28;20032;-64
2022/03/31 02:43:57;;;;;;;21.73;14.33;;;6.70;99.90;;;;;;5073220;28;20078;-64
2022/03/31 02:46:25;;;;;;;22.80;13.97;;;6.70;99.90;;;;;;5073176;28;20482;-64
2022/03/31 02:48:52;;;;;;;22.27;14.35;;;6.60;99.90;;;;;;5073329;28;20021;-65
2022/03/31 02:51:17;;;;;;;25.05;15.25;;;6.50;99.90;;;;;;5074043;28;20021;-65
2022/03/31 02:56:28;;;;;;;24.75;15.18;;;6.50;99.90;;;;;;5074026;28;20044;-64
2022/03/31 02:58:54;;;;;;;;;;;6.50;99.90;;;;;;5054691;28;20142;-64
2022/03/31 03:01:20;;;;;;;23.75;14.98;;;6.40;99.90;;;;;;5072978;28;19931;-64
2022/03/31 03:03:45;;;;;;;23.33;14.75;;;6.50;99.90;;;;;;5073082;28;20021;-64
2022/03/31 03:06:11;;;;;;;25.70;16.63;;;6.40;99.90;;;;;;5073178;28;20052;-64
2022/03/31 03:08:37;;;;;;;23.77;15.27;;;6.40;99.90;;;;;;5073153;28;20028;-64
2022/03/31 03:11:03;;;;;;;30.08;17.63;;;6.40;99.90;;;;;;5073048;28;20096;-64
2022/03/31 03:13:28;;;;;;;23.38;15.27;;;6.40;99.90;;;;;;5054949;28;20128;-64
2022/03/31 03:15:54;;;;;;;22.20;14.47;;;6.30;99.90;;;;;;5072957;28;20024;-64
2022/03/31 03:18:20;;;;;;;22.48;15.20;;;6.30;99.90;;;;;;5054867;28;20094;-64
2022/03/31 03:20:46;;;;;;;24.50;15.30;;;6.30;99.90;;;;;;5073123;28;20033;-64
2022/03/31 03:23:11;;;;;;;25.17;15.50;;;6.20;99.90;;;;;;5073803;28;20043;-65
2022/03/31 03:25:37;;;;;;;26.77;17.05;;;6.20;99.90;;;;;;5073573;28;20021;-65
2022/03/31 03:28:03;;;;;;;24.53;15.47;;;6.10;99.90;;;;;;5073191;28;20040;-65
2022/03/31 03:30:29;;;;;;;22.60;14.55;;;6.10;99.90;;;;;;5073156;28;20114;-65
2022/03/31 03:32:54;;;;;;;25.77;16.60;;;6.10;99.90;;;;;;5073041;28;20032;-65
2022/03/31 03:35:20;;;;;;;26.53;15.40;;;6.00;99.90;;;;;;5073094;28;20029;-65
2022/03/31 03:37:47;;;;;;;25.80;15.80;;;6.00;99.90;;;;;;5072764;28;20025;-65
2022/03/31 03:40:13;;;;;;;27.63;16.05;;;5.90;99.90;;;;;;5072965;28;20025;-64
2022/03/31 03:42:39;;;;;;;27.58;16.30;;;5.80;99.90;;;;;;5054483;28;20508;-65
2022/03/31 03:45:07;;;;;;;28.80;17.50;;;5.70;99.90;;;;;;5072587;28;20021;-65
2022/03/31 03:47:33;;;;;;;27.65;16.80;;;5.70;99.90;;;;;;5072647;28;20024;-65
2022/03/31 03:49:59;;;;;;;23.20;14.63;;;5.70;99.90;;;;;;5072720;28;20028;-66
2022/03/31 03:52:24;;;;;;;27.00;15.73;;;5.70;99.90;;;;;;5055050;28;20483;-66
2022/03/31 03:54:51;;;;;;;24.13;14.45;;;5.60;99.90;;;;;;5073113;28;20044;-66
2022/03/31 03:57:17;;;;;;;28.33;15.35;;;5.60;99.90;;;;;;5072652;28;20036;-66
2022/03/31 03:59:42;;;;;;;27.98;16.88;;;5.60;99.90;;;;;;5073404;28;20105;-66
2022/03/31 04:02:08;;;;;;;27.30;16.02;;;5.60;99.90;;;;;;5072847;28;20115;-66
2022/03/31 04:04:34;;;;;;;26.80;15.77;;;5.60;99.90;;;;;;5073026;28;20459;-66
2022/03/31 04:07:00;;;;;;;31.20;16.98;;;5.60;99.90;;;;;;5072489;28;20037;-66
2022/03/31 04:09:26;;;;;;;24.02;14.15;;;5.60;99.90;;;;;;5073549;28;20037;-66
2022/03/31 04:11:52;;;;;;;26.42;16.35;;;5.60;99.90;;;;;;5076098;28;20115;-66
2022/03/31 04:14:18;;;;;;;29.58;16.33;;;5.50;99.90;;;;;;5075990;28;20036;-66
2022/03/31 04:16:44;;;;;;;24.55;14.85;;;5.50;99.90;;;;;;5076013;28;20391;-66
2022/03/31 04:19:10;;;;;;;28.83;16.27;;;5.50;99.90;;;;;;5075749;28;20028;-66
2022/03/31 04:21:37;;;;;;;24.92;15.45;;;5.50;99.90;;;;;;5075515;28;20090;-66
2022/03/31 04:24:04;;;;;;;28.65;16.50;;;5.40;99.90;;;;;;5076352;28;20050;-66
2022/03/31 04:26:31;;;;;;;28.98;15.82;;;5.40;99.90;;;;;;5076382;28;20388;-65
2022/03/31 04:28:57;;;;;;;29.17;17.73;;;5.40;99.90;;;;;;5076079;28;20532;-67
2022/03/31 04:31:23;;;;;;;27.77;16.50;;;5.40;99.90;;;;;;5057577;28;20029;-66
2022/03/31 04:33:49;;;;;;;;;;;5.40;99.90;;;;;;5076059;28;20051;-66
2022/03/31 04:36:15;;;;;;;27.65;16.33;;;5.40;99.90;;;;;;5058298;28;20358;-67
2022/03/31 04:38:41;;;;;;;27.95;16.45;;;5.40;99.90;;;;;;5075440;28;20440;-66
2022/03/31 04:41:07;;;;;;;28.20;16.50;;;5.40;99.90;;;;;;5075606;28;20024;-65
2022/03/31 04:43:32;;;;;;;29.10;17.17;;;5.40;99.90;;;;;;5075466;28;20383;-66
2022/03/31 04:45:58;;;;;;;28.67;16.53;;;5.40;99.90;;;;;;5076098;28;20270;-64
2022/03/31 04:48:24;;;;;;;30.90;17.77;;;5.40;99.90;;;;;;5075336;28;20039;-64
2022/03/31 04:50:50;;;;;;;34.27;17.90;;;5.30;99.90;;;;;;5075358;28;20036;-64
2022/03/31 04:53:17;;;;;;;32.08;18.75;;;5.30;99.90;;;;;;5057337;28;20025;-65
2022/03/31 04:55:42;;;;;;;31.02;16.50;;;5.30;99.90;;;;;;5075230;28;20062;-65
2022/03/31 04:58:08;;;;;;;30.90;18.27;;;5.30;99.90;;;;;;5075130;28;20437;-65
2022/03/31 05:00:34;;;;;;;30.87;17.27;;;5.30;99.90;;;;;;5075036;28;20040;-65
2022/03/31 05:02:59;;;;;;;34.33;19.63;;;5.30;99.90;;;;;;5074971;28;20020;-65
2022/03/31 05:05:25;;;;;;;35.73;18.57;;;5.30;99.90;;;;;;5075023;28;20437;-66
2022/03/31 05:07:51;;;;;;;34.28;18.85;;;5.30;99.90;;;;;;5074944;28;20032;-65
2022/03/31 05:10:17;;;;;;;34.63;19.05;;;5.20;99.90;;;;;;5074826;28;20098;-65
2022/03/31 05:12:43;;;;;;;37.17;20.38;;;5.20;99.90;;;;;;5074840;28;20016;-65
2022/03/31 05:15:09;;;;;;;40.73;21.40;;;5.20;99.90;;;;;;5074662;28;20501;-64
2022/03/31 05:17:35;;;;;;;38.97;20.75;;;5.20;99.90;;;;;;5074702;28;20020;-66
2022/03/31 05:20:09;;;;;;;37.83;21.00;;;5.20;99.90;;;;;;5075062;28;20047;-64
2022/03/31 05:22:36;;;;;;;39.55;20.85;;;5.20;99.90;;;;;;5073831;28;20086;-65
2022/03/31 05:25:03;;;;;;;37.10;21.40;;;5.20;99.90;;;;;;5074809;28;20096;-65
2022/03/31 05:27:29;;;;;;;40.00;20.63;;;5.20;99.90;;;;;;5075204;28;20035;-65
2022/03/31 05:29:54;;;;;;;36.07;21.03;;;5.30;99.90;;;;;;5056750;28;20021;-66
2022/03/31 05:32:20;;;;;;;39.83;20.63;;;5.30;99.90;;;;;;5074694;28;20155;-67
2022/03/31 05:34:46;;;;;;;38.90;20.48;;;5.30;99.90;;;;;;5056552;28;20017;-66
2022/03/31 05:37:11;;;;;;;37.20;20.97;;;5.30;99.90;;;;;;5074282;28;20020;-66
2022/03/31 05:39:37;;;;;;;32.27;19.60;;;5.40;99.90;;;;;;5074329;28;20503;-66
2022/03/31 05:42:03;;;;;;;33.95;19.38;;;5.40;99.90;;;;;;5074322;28;20021;-62
2022/03/31 05:44:30;;;;;;;37.65;20.05;;;5.50;99.90;;;;;;5074765;28;20107;-64
2022/03/31 05:46:55;;;;;;;35.97;19.98;;;5.50;99.90;;;;;;5074244;28;20028;-64
2022/03/31 05:49:21;;;;;;;38.40;21.77;;;5.40;99.90;;;;;;5074174;28;20040;-64
2022/03/31 05:51:46;;;;;;;38.30;20.33;;;5.40;99.90;;;;;;5074079;28;20025;-63
2022/03/31 05:54:12;;;;;;;35.57;19.70;;;5.40;99.90;;;;;;5074047;28;20027;-63
2022/03/31 05:56:38;;;;;;;39.00;20.00;;;5.40;99.90;;;;;;5072886;28;20368;-64
2022/03/31 05:59:04;;;;;;;36.80;20.57;;;5.40;99.90;;;;;;5056261;28;20038;-64
2022/03/31 06:01:30;;;;;;;;;;;5.40;99.90;;;;;;5075400;28;20020;-65
2022/03/31 06:03:55;;;;;;;39.95;21.92;;;5.30;99.90;;;;;;5074498;28;20278;-64
2022/03/31 06:06:22;;;;;;;37.70;20.43;;;5.30;99.90;;;;;;5055797;28;20540;-64
2022/03/31 06:08:47;;;;;;;42.05;21.77;;;5.30;99.90;;;;;;5073733;28;20104;-63
2022/03/31 06:11:13;;;;;;;40.50;20.87;;;5.30;99.90;;;;;;5073734;28;20114;-63
2022/03/31 06:13:38;;;;;;;41.83;20.87;;;5.30;99.90;;;;;;5074254;28;20060;-63
2022/03/31 06:16:04;;;;;;;40.10;20.77;;;5.30;99.90;;;;;;5074780;28;20055;-65
2022/03/31 06:18:30;;;;;;;40.58;21.50;;;5.30;99.90;;;;;;5076330;28;20493;-61
2022/03/31 06:20:57;;;;;;;37.97;20.60;;;5.30;99.90;;;;;;5076434;28;20104;-63
2022/03/31 06:23:23;;;;;;;;;;;5.30;99.90;;;;;;5076558;28;20071;-64
2022/03/31 06:25:49;;;;;;;43.20;21.60;;;5.30;99.90;;;;;;5074373;28;19908;-64
2022/03/31 06:28:15;;;;;;;44.28;24.05;;;5.30;99.90;;;;;;5055885;28;20025;-64
2022/03/31 06:30:41;;;;;;;42.85;21.50;;;5.20;99.90;;;;;;5073429;28;20024;-63
2022/03/31 06:33:07;;;;;;;46.00;22.37;;;5.30;99.90;;;;;;5073048;28;20033;-64
2022/03/31 06:35:32;;;;;;;43.35;21.27;;;5.20;99.90;;;;;;5073682;28;20024;-64
2022/03/31 06:37:59;;;;;;;43.67;20.98;;;5.20;99.90;;;;;;5073300;28;20095;-64
2022/03/31 06:40:25;;;;;;;;;;;5.20;99.90;;;;;;5073490;28;20029;-65
2022/03/31 06:42:50;;;;;;;40.03;20.17;;;5.30;99.90;;;;;;5073125;28;19927;-65
2022/03/31 06:45:18;;;;;;;40.63;21.55;;;5.30;99.90;;;;;;5073047;28;20154;-64
2022/03/31 06:47:45;;;;;;;40.22;21.50;;;5.30;99.90;;;;;;5073049;28;20054;-65
2022/03/31 06:50:12;;;;;;;44.22;21.85;;;5.30;99.90;;;;;;5073363;28;20040;-63
2022/03/31 06:52:37;;;;;;;45.65;22.90;;;5.30;99.90;;;;;;5072918;28;20020;-64
2022/03/31 06:55:04;;;;;;;44.85;22.15;;;5.30;99.90;;;;;;5073051;28;20544;-64
2022/03/31 06:57:30;;;;;;;;;;;5.30;99.90;;;;;;5055763;28;20055;-65
2022/03/31 06:59:55;;;;;;;43.50;21.73;;;5.30;99.90;;;;;;5073182;28;19908;-67
2022/03/31 07:02:21;;;;;;;44.30;22.17;;;5.30;99.90;;;;;;5073163;28;20082;-68
2022/03/31 07:04:46;;;;;;;45.57;21.63;;;5.20;99.90;;;;;;5073004;28;20052;-66
2022/03/31 07:07:12;;;;;;;42.30;22.00;;;5.20;99.90;;;;;;5072912;28;20058;-64
2022/03/31 07:09:38;;;;;;;42.53;20.93;;;5.20;99.90;;;;;;5072969;28;20024;-64
2022/03/31 07:12:04;;;;;;;41.20;21.27;;;5.30;99.90;;;;;;5072707;28;20263;-63
2022/03/31 07:14:33;;;;;;;44.90;21.40;;;5.30;99.90;;;;;;5072860;28;20491;-64
2022/03/31 07:16:59;;;;;;;46.70;21.65;;;5.30;99.90;;;;;;5072907;28;20024;-66
2022/03/31 07:19:24;;;;;;;43.17;22.40;;;5.30;99.90;;;;;;5072900;28;20035;-65
2022/03/31 07:21:51;;;;;;;43.40;21.47;;;5.30;99.90;;;;;;5073559;28;20040;-65
2022/03/31 07:24:17;;;;;;;48.15;22.65;;;5.30;99.90;;;;;;5073608;28;20028;-65
2022/03/31 07:26:43;;;;;;;51.07;23.50;;;5.40;99.90;;;;;;5073303;28;20400;-65
2022/03/31 07:29:09;;;;;;;45.20;21.60;;;5.50;99.90;;;;;;5072744;28;20510;-65
2022/03/31 07:31:35;;;;;;;46.53;21.83;;;5.60;99.90;;;;;;5072618;28;20483;-65
2022/03/31 07:34:00;;;;;;;41.08;21.80;;;5.60;99.90;;;;;;5072654;28;20095;-65
2022/03/31 07:36:26;;;;;;;44.60;21.60;;;5.70;99.90;;;;;;5054743;28;20483;-65
2022/03/31 07:38:52;;;;;;;40.93;20.83;;;5.80;99.90;;;;;;5054976;28;20040;-65
2022/03/31 07:41:18;;;;;;;40.92;21.45;;;5.80;99.90;;;;;;5054810;28;20028;-64
2022/03/31 07:43:44;;;;;;;41.20;21.73;;;5.90;99.90;;;;;;5072576;28;20078;-64
2022/03/31 07:46:10;;;;;;;40.72;22.40;;;6.00;99.90;;;;;;5075745;28;20067;-64
2022/03/31 07:48:36;;;;;;;39.63;20.52;;;6.00;99.90;;;;;;5076390;28;20025;-65
2022/03/31 07:51:02;;;;;;;36.35;20.17;;;5.90;99.90;;;;;;5076289;28;20071;-64
2022/03/31 07:53:32;;;;;;;39.47;20.97;;;5.90;99.90;;;;;;5076155;28;20021;-64
2022/03/31 07:55:59;;;;;;;41.20;21.92;;;6.00;99.90;;;;;;5076537;28;20042;-63
2022/03/31 07:58:24;;;;;;;36.65;20.02;;;5.90;99.90;;;;;;5076174;28;20024;-64
2022/03/31 08:00:50;;;;;;;39.03;20.97;;;5.90;99.90;;;;;;5076047;28;20039;-64
2022/03/31 08:03:17;;;;;;;35.10;21.13;;;6.00;99.90;;;;;;5075974;28;20020;-64
2022/03/31 08:05:43;;;;;;;36.08;19.95;;;6.10;99.90;;;;;;5058476;28;20037;-64
2022/03/31 08:08:08;;;;;;;32.80;19.53;;;6.10;99.90;;;;;;5075835;28;20028;-65
2022/03/31 08:10:34;;;;;;;39.27;21.13;;;6.20;99.90;;;;;;5075915;28;20025;-65
2022/03/31 08:12:59;;;;;;;35.37;20.27;;;6.30;99.90;;;;;;5057782;28;20032;-64
2022/03/31 08:15:26;;;;;;;33.60;18.70;;;6.50;99.90;;;;;;5075763;28;20689;-64
2022/03/31 08:17:51;;;;;;;34.03;18.45;;;6.50;99.90;;;;;;5057638;28;20105;-65
2022/03/31 08:20:17;;;;;;;32.42;18.67;;;6.50;99.90;;;;;;5075912;28;20033;-65
2022/03/31 08:22:44;;;;;;;37.85;19.98;;;6.50;99.90;;;;;;5076918;28;20039;-64
2022/03/31 08:25:10;;;;;;;34.47;19.83;;;6.60;99.90;;;;;;5076292;28;20024;-63
2022/03/31 08:27:38;;;;;;;32.17;19.58;;;6.50;99.90;;;;;;5075624;28;20055;-63
2022/03/31 08:30:06;;;;;;;34.67;20.23;;;6.40;99.90;;;;;;5075454;28;20020;-64
2022/03/31 08:32:36;;;;;;;36.50;19.33;;;6.40;99.90;;;;;;5075513;28;20024;-66
2022/03/31 08:35:03;;;;;;;38.08;19.52;;;6.40;99.90;;;;;;5075890;28;20544;-65
2022/03/31 08:37:29;;;;;;;39.85;19.98;;;6.40;99.90;;;;;;5075714;28;20036;-65
2022/03/31 08:39:55;;;;;;;38.33;19.60;;;6.50;99.90;;;;;;5075636;28;20035;-65
2022/03/31 08:42:20;;;;;;;35.17;19.50;;;6.60;99.90;;;;;;5075444;28;20388;-65
2022/03/31 08:44:49;;;;;;;32.30;19.63;;;6.60;99.90;;;;;;5075447;28;20087;-65
2022/03/31 08:47:17;;;;;;;36.55;21.10;;;6.70;99.90;;;;;;5075312;28;20029;-66
2022/03/31 08:49:43;;;;;;;32.28;19.20;;;6.80;99.90;;;;;;5074998;28;20021;-66
2022/03/31 08:52:09;;;;;;;;;;;6.90;99.90;;;;;;5075841;28;20023;-66
2022/03/31 08:54:34;;;;;;;32.45;17.95;;;7.00;99.90;;;;;;5075338;28;19908;-65
2022/03/31 08:57:00;;;;;;;36.40;21.00;;;6.90;99.90;;;;;;5075189;28;20025;-65
2022/03/31 08:59:26;;;;;;;30.33;17.80;;;7.00;99.90;;;;;;5075572;28;20036;-65
2022/03/31 09:01:52;;;;;;;34.45;18.73;;;7.10;99.90;;;;;;5074980;28;20166;-65
2022/03/31 09:04:21;;;;;;;30.70;18.53;;;7.00;99.90;;;;;;5075275;28;20055;-65
2022/03/31 09:07:02;;;;;;;31.60;18.33;;;7.20;99.90;;;;;;5075523;28;20071;-66
2022/03/31 09:09:28;;;;;;;28.55;17.23;;;7.30;99.90;;;;;;5075477;28;20060;-65
2022/03/31 09:11:53;;;;;;;28.45;17.15;;;7.40;99.90;;;;;;5057346;28;20059;-65
2022/03/31 09:14:29;;;;;;;30.07;17.77;;;7.40;99.90;;;;;;5075073;28;20059;-66
2022/03/31 09:16:55;;;;;;;33.47;17.20;;;7.40;99.90;;;;;;5075800;28;20021;-66
2022/03/31 09:19:21;;;;;;;27.35;17.75;;;7.30;99.90;;;;;;5075286;28;20029;-65
2022/03/31 09:21:53;;;;;;;29.50;17.27;;;7.40;99.90;;;;;;5074870;28;20040;-68
2022/03/31 09:24:23;;;;;;;29.60;17.17;;;7.40;99.90;;;;;;5056942;28;20112;-63
2022/03/31 09:26:50;;;;;;;26.35;16.77;;;7.30;99.90;;;;;;5074477;28;20059;-62
2022/03/31 09:29:19;;;;;;;25.70;15.75;;;7.30;99.90;;;;;;5074318;28;20043;-62
2022/03/31 09:31:46;;;;;;;26.67;15.40;;;7.40;99.90;;;;;;5074356;28;20021;-62
2022/03/31 09:34:13;;;;;;;27.35;16.58;;;7.40;99.90;;;;;;5074225;28;20020;-63
2022/03/31 09:36:52;;;;;;;27.70;16.13;;;7.50;99.90;;;;;;5074256;28;20025;-63
2022/03/31 09:39:20;;;;;;;25.08;15.05;;;7.60;99.90;;;;;;5074316;28;20032;-61
2022/03/31 09:41:48;;;;;;;26.23;16.40;;;7.70;99.90;;;;;;5056209;28;20020;-61
2022/03/31 09:44:16;;;;;;;24.48;15.57;;;7.80;99.90;;;;;;5074699;28;20021;-63
2022/03/31 09:46:43;;;;;;;26.40;16.20;;;8.00;99.90;;;;;;5075246;28;20051;-62
2022/03/31 09:49:19;;;;;;;23.83;15.07;;;7.70;99.90;;;;;;5074901;28;20120;-62
2022/03/31 09:51:48;;;;;;;24.40;15.02;;;7.60;99.90;;;;;;5074674;28;20028;-62
2022/03/31 09:54:14;;;;;;;25.25;14.63;;;7.60;99.90;;;;;;5074438;28;20020;-63
2022/03/31 09:56:40;;;;;;;23.70;14.40;;;7.50;99.90;;;;;;5056990;28;20028;-62
2022/03/31 09:59:15;;;;;;;22.60;13.40;;;7.60;99.90;;;;;;5075427;28;20054;-61
2022/03/31 10:01:41;;;;;;;21.58;13.88;;;7.70;99.90;;;;;;5075411;28;20036;-60
2022/03/31 10:04:09;;;;;;;22.48;14.85;;;7.80;99.90;;;;;;5056679;28;20021;-61
2022/03/31 10:06:37;;;;;;;22.98;13.82;;;7.70;99.90;;;;;;5074780;28;20575;-60
2022/03/31 10:09:08;;;;;;;24.13;14.75;;;7.80;99.90;;;;;;5073813;28;20032;-61
2022/03/31 10:11:38;;;;;;;22.10;14.57;;;8.00;99.90;;;;;;5074396;28;20039;-56
2022/03/31 10:14:25;;;;;;;22.77;14.57;;;8.00;99.90;;;;;;5073548;28;20082;-58
2022/03/31 10:16:59;;;;;;;20.60;14.02;;;8.10;99.90;;;;;;5074557;28;20027;-63
2022/03/31 10:19:35;;;;;;;22.65;14.98;;;7.90;99.90;;;;;;5073685;28;20029;-60
2022/03/31 10:22:09;;;;;;;22.38;13.88;;;7.80;99.90;;;;;;5055862;28;20445;-59
2022/03/31 10:24:46;;;;;;;21.48;13.90;;;7.70;99.90;;;;;;5055714;28;20036;-61
2022/03/31 10:27:26;;;;;;;21.33;13.55;;;7.90;99.90;;;;;;5073318;28;20028;-63
2022/03/31 10:29:52;;;;;;;23.33;14.05;;;7.90;99.90;;;;;;5073276;28;20032;-62
2022/03/31 10:32:24;;;;;;;21.10;13.65;;;7.90;99.90;;;;;;5073392;28;20024;-62
2022/03/31 10:34:53;;;;;;;24.33;15.00;;;7.90;99.90;;;;;;5073433;28;20037;-62
2022/03/31 10:37:35;;;;;;;21.20;13.23;;;7.90;99.90;;;;;;5073145;28;20017;-63
2022/03/31 10:40:03;;;;;;;21.67;13.68;;;7.80;99.90;;;;;;5073459;28;20027;-64
2022/03/31 10:42:29;;;;;;;24.30;13.98;;;7.80;99.90;;;;;;5073886;28;20025;-63
2022/03/31 10:45:12;;;;;;;22.98;13.63;;;7.80;99.90;;;;;;5073532;28;20453;-64
2022/03/31 10:47:40;;;;;;;22.10;13.35;;;7.80;99.90;;;;;;5073355;28;20048;-63
2022/03/31 10:50:08;;;;;;;24.38;13.68;;;7.90;99.90;;;;;;5054755;28;20028;-62
2022/03/31 10:52:34;;;;;;;20.80;13.60;;;8.00;99.90;;;;;;5072869;28;20027;-62
2022/03/31 10:55:09;;;;;;;22.77;13.77;;;8.10;99.90;;;;;;5072995;28;20487;-65
2022/03/31 10:57:40;;;;;;;20.80;13.50;;;8.10;99.90;;;;;;5073427;28;20113;-62
2022/03/31 11:00:08;;;;;;;21.60;13.55;;;8.00;99.90;;;;;;5072875;28;20040;-63
2022/03/31 11:02:41;;;;;;;19.55;13.10;;;8.20;99.90;;;;;;5073469;28;20364;-64
2022/03/31 11:05:07;;;;;;;22.15;13.35;;;8.20;99.90;;;;;;5073367;28;20021;-61
2022/03/31 11:07:33;;;;;;;21.80;13.70;;;8.30;99.90;;;;;;5073465;28;20103;-67
2022/03/31 11:10:08;;;;;;;20.13;12.80;;;8.20;99.90;;;;;;5055141;28;20494;-63
2022/03/31 11:12:36;;;;;;;20.27;12.98;;;8.30;99.90;;;;;;5072875;28;20093;-63
2022/03/31 11:15:08;;;;;;;28.48;18.42;;;8.40;99.90;;;;;;5072688;28;20023;-62
2022/03/31 11:17:35;;;;;;;35.03;21.73;;;8.50;99.90;;;;;;5055176;28;20029;-64
2022/03/31 11:20:06;;;;;;;21.70;12.93;;;8.70;99.90;;;;;;5074616;28;20085;-64
2022/03/31 11:22:31;;;;;;;18.83;12.73;;;8.70;99.90;;;;;;5076858;28;20495;-63
2022/03/31 11:25:18;;;;;;;18.17;12.13;;;8.80;99.90;;;;;;5077101;28;20043;-63
2022/03/31 11:27:46;;;;;;;21.25;12.27;;;9.00;99.90;;;;;;5077023;28;20376;-63
2022/03/31 11:30:20;;;;;;;17.48;11.73;;;9.10;99.90;;;;;;5076807;28;20036;-62
2022/03/31 11:32:50;;;;;;;18.45;12.55;;;9.20;99.90;;;;;;5076994;28;20031;-62
2022/03/31 11:35:17;;;;;;;19.75;12.35;;;9.20;99.90;;;;;;5076693;28;20545;-62
2022/03/31 11:37:45;;;;;;;20.45;12.10;;;9.30;99.90;;;;;;5077199;28;20355;-64
2022/03/31 11:40:24;;;;;;;17.67;11.60;;;9.10;99.90;;;;;;5077443;28;20501;-63
2022/03/31 11:42:52;;;;;;;19.58;11.50;;;9.10;99.90;;;;;;5076772;28;20028;-62
2022/03/31 11:45:30;;;;;;;17.63;10.88;;;9.10;99.90;;;;;;5076729;28;20032;-64
2022/03/31 11:47:57;;;;;;;15.68;11.05;;;9.20;99.90;;;;;;5076741;28;20391;-63
2022/03/31 11:50:23;;;;;;;15.20;10.07;;;9.20;99.90;;;;;;5076520;28;20020;-63
2022/03/31 11:52:50;;;;;;;16.45;10.63;;;9.30;99.90;;;;;;5076536;28;20025;-63
2022/03/31 11:55:15;;;;;;;17.75;11.82;;;9.20;99.90;;;;;;5058373;28;20049;-62
2022/03/31 11:58:00;;;;;;;18.08;12.00;;;9.00;99.90;;;;;;5058143;28;20075;-62
2022/03/31 12:00:28;;;;;;;15.85;11.15;;;9.00;99.90;;;;;;5058263;28;20036;-64
2022/03/31 12:03:06;;;;;;;16.67;9.93;;;9.00;99.90;;;;;;5075878;28;20032;-62
2022/03/31 12:05:32;;;;;;;17.52;10.98;;;9.10;99.90;;;;;;5076217;28;20035;-62
2022/03/31 12:08:00;;;;;;;19.45;10.50;;;9.00;99.90;;;;;;5076112;28;20025;-64
2022/03/31 12:10:30;;;;;;;16.25;10.55;;;9.10;99.90;;;;;;5057905;28;20024;-64
2022/03/31 12:12:58;;;;;;;17.50;10.05;;;9.10;99.90;;;;;;5076217;28;20475;-64
2022/03/31 12:15:26;;;;;;;15.57;9.57;;;9.20;99.90;;;;;;5076234;28;20482;-63
2022/03/31 12:17:59;;;;;;;16.08;10.77;;;9.20;99.90;;;;;;5076656;28;20036;-64
2022/03/31 12:20:26;;;;;;;16.92;10.02;;;9.30;99.90;;;;;;5076383;28;20053;-65
2022/03/31 12:22:51;;;;;;;;;;;9.30;99.90;;;;;;5058072;28;20509;-64
2022/03/31 12:25:28;;;;;;;15.68;10.05;;;9.20;99.90;;;;;;5058043;28;19904;-64
2022/03/31 12:28:01;;;;;;;17.15;10.10;;;9.20;99.90;;;;;;5075775;28;20017;-63
2022/03/31 12:30:40;;;;;;;18.27;10.10;;;9.30;99.90;;;;;;5075207;28;20021;-64
2022/03/31 12:33:19;;;;;;;15.65;10.15;;;9.50;99.90;;;;;;5075633;28;20027;-65
2022/03/31 12:36:04;;;;;;;14.95;9.52;;;9.70;99.90;;;;;;5075628;28;20029;-63
2022/03/31 12:38:48;;;;;;;15.82;10.00;;;9.70;99.90;;;;;;5075497;28;20020;-62
2022/03/31 12:41:16;;;;;;;15.23;9.93;;;9.70;99.90;;;;;;5075561;28;20040;-62
2022/03/31 12:43:43;;;;;;;15.98;10.43;;;9.40;99.90;;;;;;5075678;28;20025;-62